createdAt,value
2018-03-16T00:01:24.868Z,100313.22
2018-03-16T00:03:52.483Z,100308.16
2018-03-16T00:06:20.855Z,100303.67
2018-03-16T00:08:48.476Z,100307.44
2018-03-16T00:11:16.073Z,100307.38
2018-03-16T00:13:43.660Z,100311.90
2018-03-16T00:16:11.250Z,100312.86
2018-03-16T00:18:39.610Z,100307.91
2018-03-16T00:21:08.068Z,100309.09
2018-03-16T00:23:35.649Z,100313.84
2018-03-16T00:26:03.278Z,100307.55
2018-03-16T00:28:31.643Z,100295.39
2018-03-16T00:30:59.963Z,100300.45
2018-03-16T00:33:28.242Z,100300.56
2018-03-16T00:35:56.590Z,100305.64
2018-03-16T00:38:24.203Z,100302.86
2018-03-16T00:40:51.818Z,100298.88
2018-03-16T00:43:20.282Z,100300.39
2018-03-16T00:45:48.567Z,100292.17
2018-03-16T00:48:16.969Z,100301.99
2018-03-16T00:50:44.554Z,100300.06
2018-03-16T00:53:12.965Z,100300.81
2018-03-16T00:55:41.239Z,100299.66
2018-03-16T00:58:08.822Z,100288.09
2018-03-16T01:00:36.403Z,100288.97
2018-03-16T01:03:04.020Z,100294.92
2018-03-16T01:05:32.516Z,100287.06
2018-03-16T01:08:00.863Z,100295.45
2018-03-16T01:10:28.854Z,100284.92
2018-03-16T01:12:57.274Z,100286.47
2018-03-16T01:15:24.857Z,100284.48
2018-03-16T01:17:53.283Z,100281.36
2018-03-16T01:20:20.862Z,100282.09
2018-03-16T01:22:49.343Z,100275.33
2018-03-16T01:25:16.924Z,100261.71
2018-03-16T01:27:44.510Z,100276.81
2018-03-16T01:30:12.795Z,100270.19
2018-03-16T01:32:40.375Z,100274.45
2018-03-16T01:35:07.976Z,100278.33
2018-03-16T01:37:35.551Z,100285.02
2018-03-16T01:40:03.172Z,100281.67
2018-03-16T01:42:30.751Z,100286.73
2018-03-16T01:44:58.333Z,100284.84
2018-03-16T01:47:25.919Z,100288.66
2018-03-16T01:49:53.498Z,100281.73
2018-03-16T01:52:21.082Z,100291.30
2018-03-16T01:54:48.668Z,100285.03
2018-03-16T01:57:16.283Z,100292.45
2018-03-16T01:59:43.868Z,100287.00
2018-03-16T02:02:11.453Z,100279.70
2018-03-16T02:04:39.039Z,100286.66
2018-03-16T02:07:06.619Z,100283.23
2018-03-16T02:09:34.206Z,100279.42
2018-03-16T02:12:01.791Z,100278.80
2018-03-16T02:14:29.396Z,100275.16
2018-03-16T02:16:56.974Z,100272.30
2018-03-16T02:19:24.593Z,100279.45
2018-03-16T02:21:52.175Z,100271.45
2018-03-16T02:24:19.790Z,100273.02
2018-03-16T02:26:47.424Z,100276.86
2018-03-16T02:29:15.002Z,100268.30
2018-03-16T02:31:43.362Z,100272.57
2018-03-16T02:34:10.950Z,100276.89
2018-03-16T02:36:38.571Z,100269.56
2018-03-16T02:39:06.176Z,100271.44
2018-03-16T02:41:34.529Z,100269.59
2018-03-16T02:44:02.113Z,100266.63
2018-03-16T02:46:30.577Z,100269.36
2018-03-16T02:48:58.157Z,100271.23
2018-03-16T02:51:25.736Z,100264.98
2018-03-16T02:53:54.099Z,100266.46
2018-03-16T02:56:21.729Z,100270.67
2018-03-16T02:58:49.304Z,100274.52
2018-03-16T03:01:16.890Z,100272.95
2018-03-16T03:03:44.491Z,100273.84
2018-03-16T03:06:12.076Z,100279.38
2018-03-16T03:08:39.666Z,100278.46
2018-03-16T03:11:07.249Z,100282.92
2018-03-16T03:13:35.738Z,100275.02
2018-03-16T03:16:03.324Z,100285.45
2018-03-16T03:18:30.919Z,100286.16
2018-03-16T03:20:58.498Z,100293.69
2018-03-16T03:23:26.083Z,100295.77
2018-03-16T03:25:53.659Z,100300.86
2018-03-16T03:28:22.191Z,100293.48
2018-03-16T03:30:49.777Z,100295.48
2018-03-16T03:33:18.139Z,100304.30
2018-03-16T03:35:46.613Z,100286.59
2018-03-16T03:38:14.199Z,100292.41
2018-03-16T03:40:41.781Z,100288.74
2018-03-16T03:43:10.138Z,100282.71
2018-03-16T03:45:37.797Z,100285.40
2018-03-16T03:48:05.371Z,100284.27
2018-03-16T03:50:32.983Z,100282.98
2018-03-16T03:53:00.562Z,100278.21
2018-03-16T03:55:28.186Z,100278.93
2018-03-16T03:57:55.769Z,100270.03
2018-03-16T04:00:23.387Z,100272.77
2018-03-16T04:02:50.970Z,100265.45
2018-03-16T04:05:18.588Z,100265.13
2018-03-16T04:07:46.171Z,100255.34
2018-03-16T04:10:14.533Z,100263.45
2018-03-16T04:12:42.119Z,100261.00
2018-03-16T04:15:09.695Z,100255.83
2018-03-16T04:17:37.965Z,100262.98
2018-03-16T04:20:06.360Z,100251.13
2018-03-16T04:22:34.271Z,100258.14
2018-03-16T04:25:02.628Z,100258.11
2018-03-16T04:27:30.222Z,100259.17
2018-03-16T04:29:57.837Z,100258.34
2018-03-16T04:32:26.339Z,100253.84
2018-03-16T04:34:53.921Z,100254.32
2018-03-16T04:37:22.425Z,100262.72
2018-03-16T04:39:50.069Z,100261.53
2018-03-16T04:42:18.435Z,100260.14
2018-03-16T04:44:46.024Z,100268.53
2018-03-16T04:47:14.439Z,100272.85
2018-03-16T04:49:42.819Z,100276.27
2018-03-16T04:52:11.140Z,100277.91
2018-03-16T04:54:38.723Z,100270.33
2018-03-16T04:57:06.348Z,100271.83
2018-03-16T04:59:34.638Z,100271.95
2018-03-16T05:02:02.219Z,100264.11
2018-03-16T05:04:30.618Z,100274.03
2018-03-16T05:06:58.198Z,100260.11
2018-03-16T05:09:26.579Z,100257.85
2018-03-16T05:11:54.868Z,100259.71
2018-03-16T05:14:22.455Z,100262.09
2018-03-16T05:16:50.037Z,100254.69
2018-03-16T05:19:17.623Z,100259.84
2018-03-16T05:21:45.205Z,100260.33
2018-03-16T05:24:13.683Z,100256.88
2018-03-16T05:26:42.068Z,100262.23
2018-03-16T05:29:09.650Z,100261.97
2018-03-16T05:31:37.241Z,100262.78
2018-03-16T05:34:04.861Z,100263.78
2018-03-16T05:36:32.448Z,100268.38
2018-03-16T05:39:00.731Z,100271.37
2018-03-16T05:41:29.155Z,100283.94
2018-03-16T05:43:56.741Z,100275.45
2018-03-16T05:46:24.355Z,100280.83
2018-03-16T05:48:51.940Z,100278.97
2018-03-16T05:51:20.297Z,100278.81
2018-03-16T05:53:47.879Z,100264.62
2018-03-16T05:56:15.460Z,100267.20
2018-03-16T05:58:43.044Z,100274.17
2018-03-16T06:01:10.663Z,100276.06
2018-03-16T06:03:38.938Z,100282.22
2018-03-16T06:06:06.553Z,100277.24
2018-03-16T06:08:34.171Z,100278.53
2018-03-16T06:11:01.775Z,100278.31
2018-03-16T06:13:30.136Z,100278.31
2018-03-16T06:15:57.776Z,100281.73
2018-03-16T06:18:25.366Z,100271.11
2018-03-16T06:20:52.962Z,100275.47
2018-03-16T06:23:21.327Z,100277.22
2018-03-16T06:25:48.917Z,100276.78
2018-03-16T06:28:16.510Z,100274.28
2018-03-16T06:30:44.104Z,100280.64
2018-03-16T06:33:11.686Z,100267.41
2018-03-16T06:35:39.280Z,100279.55
2018-03-16T06:38:07.751Z,100271.08
2018-03-16T06:40:35.351Z,100275.22
2018-03-16T06:43:02.971Z,100272.81
2018-03-16T06:45:30.549Z,100276.03
2018-03-16T06:47:58.847Z,100280.34
2018-03-16T06:50:26.451Z,100281.88
2018-03-16T06:52:54.031Z,100282.65
2018-03-16T06:55:21.619Z,100280.84
2018-03-16T06:57:49.218Z,100272.57
2018-03-16T07:00:16.800Z,100284.16
2018-03-16T07:02:44.380Z,100293.50
2018-03-16T07:05:11.972Z,100284.68
2018-03-16T07:07:39.559Z,100292.67
2018-03-16T07:10:08.750Z,100294.93
2018-03-16T07:12:36.363Z,100297.56
2018-03-16T07:15:15.576Z,100296.50
2018-03-16T07:17:44.165Z,100297.14
2018-03-16T07:20:11.748Z,100303.59
2018-03-16T07:22:39.331Z,100311.06
2018-03-16T07:25:06.926Z,100312.50
2018-03-16T07:27:34.515Z,100323.27
2018-03-16T07:30:03.003Z,100308.41
2018-03-16T07:32:30.894Z,100320.20
2018-03-16T07:34:58.489Z,100316.14
2018-03-16T07:37:26.104Z,100312.33
2018-03-16T07:39:53.692Z,100303.48
2018-03-16T07:42:21.280Z,100321.27
2018-03-16T07:44:49.642Z,100313.62
2018-03-16T07:47:17.259Z,100320.25
2018-03-16T07:49:44.879Z,100314.76
2018-03-16T07:52:13.380Z,100315.53
2018-03-16T07:54:40.997Z,100315.42
2018-03-16T07:57:08.576Z,100313.38
2018-03-16T07:59:36.165Z,100310.95
2018-03-16T08:02:04.600Z,100315.92
2018-03-16T08:04:32.886Z,100302.50
2018-03-16T08:07:01.294Z,100318.60
2018-03-16T08:12:03.292Z,100298.47
2018-03-16T08:14:31.792Z,100295.80
2018-03-16T08:17:00.191Z,100307.15
2018-03-16T08:19:28.578Z,100295.80
2018-03-16T08:21:56.864Z,100298.30
2018-03-16T08:24:25.247Z,100304.23
2018-03-16T08:26:52.825Z,100307.17
2018-03-16T08:29:20.447Z,100316.52
2018-03-16T08:31:48.029Z,100305.66
2018-03-16T08:34:15.615Z,100304.54
2018-03-16T08:36:43.211Z,100313.99
2018-03-16T08:39:10.806Z,100320.38
2018-03-16T08:41:38.402Z,100330.39
2018-03-16T08:44:05.979Z,100334.97
2018-03-16T08:46:33.675Z,100331.48
2018-03-16T08:49:02.034Z,100331.87
2018-03-16T08:51:30.459Z,100335.53
2018-03-16T08:53:58.935Z,100342.60
2018-03-16T08:56:27.374Z,100336.52
2018-03-16T08:58:55.745Z,100345.03
2018-03-16T09:01:24.040Z,100354.44
2018-03-16T09:03:51.671Z,100347.42
2018-03-16T09:06:19.967Z,100346.48
2018-03-16T09:08:48.367Z,100351.08
2018-03-16T09:11:16.836Z,100358.78
2018-03-16T09:13:44.475Z,100342.02
2018-03-16T09:16:12.064Z,100342.86
2018-03-16T09:18:39.696Z,100349.30
2018-03-16T09:21:07.414Z,100351.31
2018-03-16T09:23:35.191Z,100358.73
2018-03-16T09:26:02.874Z,100347.63
2018-03-16T09:28:31.284Z,100342.81
2018-03-16T09:30:58.923Z,100353.80
2018-03-16T09:33:26.515Z,100351.45
2018-03-16T09:35:54.123Z,100351.05
2018-03-16T09:38:21.707Z,100351.84
2018-03-16T09:40:49.305Z,100349.37
2018-03-16T09:43:16.891Z,100348.54
2018-03-16T09:45:45.157Z,100345.10
2018-03-16T09:48:13.531Z,100353.89
2018-03-16T09:50:41.855Z,100361.61
2018-03-16T09:53:09.419Z,100347.84
2018-03-16T09:55:42.394Z,100353.67
2018-03-16T09:58:10.882Z,100355.52
2018-03-16T10:00:38.468Z,100356.86
2018-03-16T10:03:06.884Z,100358.99
2018-03-16T10:05:35.182Z,100355.02
2018-03-16T10:08:02.763Z,100360.30
2018-03-16T10:10:30.360Z,100365.05
2018-03-16T10:12:57.941Z,100372.25
2018-03-16T10:15:25.554Z,100361.40
2018-03-16T10:17:53.200Z,100367.05
2018-03-16T10:20:21.568Z,100362.95
2018-03-16T10:22:49.166Z,100357.28
2018-03-16T10:25:16.750Z,100367.84
2018-03-16T10:27:45.224Z,100359.27
2018-03-16T10:30:12.815Z,100354.96
2018-03-16T10:32:41.669Z,100373.17
2018-03-16T10:35:10.196Z,100353.09
2018-03-16T10:37:37.779Z,100351.73
2018-03-16T10:40:06.138Z,100355.34
2018-03-16T10:42:33.723Z,100351.45
2018-03-16T10:45:02.267Z,100349.00
2018-03-16T10:47:29.854Z,100354.81
2018-03-16T10:49:58.142Z,100347.36
2018-03-16T10:52:26.506Z,100349.64
2018-03-16T10:54:54.770Z,100344.31
2018-03-16T10:57:23.147Z,100354.92
2018-03-16T10:59:51.546Z,100360.33
2018-03-16T11:02:20.042Z,100349.08
2018-03-16T11:04:53.040Z,100362.02
2018-03-16T11:07:21.538Z,100364.02
2018-03-16T11:09:49.168Z,100364.44
2018-03-16T11:12:17.676Z,100359.12
2018-03-16T11:14:46.044Z,100368.95
2018-03-16T11:17:14.475Z,100355.53
2018-03-16T11:19:42.861Z,100372.17
2018-03-16T11:22:11.191Z,100365.81
2018-03-16T11:24:39.571Z,100353.93
2018-03-16T11:27:07.248Z,100365.28
2018-03-16T11:29:34.864Z,100363.13
2018-03-16T11:32:02.439Z,100355.72
2018-03-16T11:34:30.024Z,100365.28
2018-03-16T11:36:58.444Z,100358.56
2018-03-16T11:39:26.930Z,100353.98
2018-03-16T11:41:54.514Z,100362.02
2018-03-16T11:44:22.103Z,100360.30
2018-03-16T11:46:49.692Z,100360.41
2018-03-16T11:49:17.312Z,100355.48
2018-03-16T11:51:44.936Z,100353.47
2018-03-16T11:54:12.604Z,100348.95
2018-03-16T11:56:40.184Z,100351.90
2018-03-16T11:59:08.680Z,100352.55
2018-03-16T12:01:37.037Z,100337.50
2018-03-16T12:04:05.383Z,100347.94
2018-03-16T12:06:33.726Z,100349.83
2018-03-16T12:09:02.105Z,100342.30
2018-03-16T12:11:30.549Z,100364.06
2018-03-16T12:13:58.171Z,100342.53
2018-03-16T12:16:26.088Z,100355.78
2018-03-16T12:18:53.720Z,100343.05
2018-03-16T12:21:22.239Z,100346.30
2018-03-16T12:23:50.610Z,100351.85
2018-03-16T12:26:19.011Z,100347.45
2018-03-16T12:28:49.951Z,100352.09
2018-03-16T12:31:15.852Z,100355.31
2018-03-16T12:33:44.132Z,100341.81
2018-03-16T12:36:12.498Z,100354.12
2018-03-16T12:38:40.736Z,100349.09
2018-03-16T12:41:08.320Z,100351.80
2018-03-16T12:43:36.728Z,100343.53
2018-03-16T12:46:04.324Z,100347.45
2018-03-16T12:48:31.908Z,100359.22
2018-03-16T12:50:59.496Z,100357.73
2018-03-16T12:53:27.106Z,100356.92
2018-03-16T12:55:54.736Z,100356.67
2018-03-16T12:58:23.204Z,100357.92
2018-03-16T13:00:50.830Z,100364.33
2018-03-16T13:03:18.417Z,100355.23
2018-03-16T13:05:46.719Z,100362.08
2018-03-16T13:08:15.087Z,100366.63
2018-03-16T13:10:43.456Z,100369.25
2018-03-16T13:13:11.042Z,100372.96
2018-03-16T13:15:38.632Z,100370.20
2018-03-16T13:18:06.220Z,100364.91
2018-03-16T13:20:33.816Z,100374.64
2018-03-16T13:23:01.430Z,100372.24
2018-03-16T13:25:29.043Z,100379.31
2018-03-16T13:27:56.668Z,100370.48
2018-03-16T13:30:24.260Z,100373.45
2018-03-16T13:32:51.858Z,100379.03
2018-03-16T13:35:19.451Z,100374.09
2018-03-16T13:37:47.743Z,100384.94
2018-03-16T13:40:16.248Z,100378.30
2018-03-16T13:42:44.853Z,100378.91
2018-03-16T13:45:12.451Z,100388.59
2018-03-16T13:47:40.960Z,100397.28
2018-03-16T13:50:08.542Z,100391.27
2018-03-16T13:52:36.859Z,100394.01
2018-03-16T13:55:04.447Z,100392.30
2018-03-16T13:57:32.077Z,100396.23
2018-03-16T13:59:59.664Z,100395.31
2018-03-16T14:02:27.262Z,100395.14
2018-03-16T14:04:55.632Z,100398.14
2018-03-16T14:07:23.213Z,100406.52
2018-03-16T14:09:51.696Z,100396.13
2018-03-16T14:12:20.179Z,100400.56
2018-03-16T14:14:47.774Z,100402.81
2018-03-16T14:17:15.401Z,100401.36
2018-03-16T14:19:43.680Z,100405.89
2018-03-16T14:22:11.298Z,100402.95
2018-03-16T14:24:39.657Z,100399.86
2018-03-16T14:27:08.195Z,100407.11
2018-03-16T14:29:35.783Z,100405.45
2018-03-16T14:32:04.260Z,100402.61
2018-03-16T14:34:31.875Z,100412.22
2018-03-16T14:37:00.173Z,100409.30
2018-03-16T14:39:27.764Z,100416.12
2018-03-16T14:41:55.361Z,100412.05
2018-03-16T14:44:23.731Z,100411.23
2018-03-16T14:46:51.355Z,100419.05
2018-03-16T14:49:18.943Z,100424.95
2018-03-16T14:51:47.310Z,100425.90
2018-03-16T14:54:14.976Z,100418.18
2018-03-16T14:56:43.427Z,100432.27
2018-03-16T14:59:11.040Z,100427.63
2018-03-16T15:01:38.630Z,100428.70
2018-03-16T15:04:07.168Z,100437.41
2018-03-16T15:06:35.474Z,100440.55
2018-03-16T15:09:03.809Z,100435.91
2018-03-16T15:11:32.103Z,100444.20
2018-03-16T15:14:00.515Z,100439.98
2018-03-16T15:16:28.103Z,100444.95
2018-03-16T15:18:56.328Z,100450.69
2018-03-16T15:21:23.955Z,100448.69
2018-03-16T15:23:51.584Z,100453.66
2018-03-16T15:26:19.183Z,100459.71
2018-03-16T15:28:47.588Z,100453.78
2018-03-16T15:31:15.235Z,100456.78
2018-03-16T15:33:43.716Z,100456.48
2018-03-16T15:36:11.359Z,100460.30
2018-03-16T15:38:39.753Z,100459.17
2018-03-16T15:41:07.790Z,100453.68
2018-03-16T15:43:36.270Z,100464.47
2018-03-16T15:46:03.896Z,100462.52
2018-03-16T15:48:31.532Z,100463.34
2018-03-16T15:50:59.939Z,100456.66
2018-03-16T15:53:27.572Z,100465.34
2018-03-16T15:55:55.990Z,100470.74
2018-03-16T15:58:23.595Z,100478.02
2018-03-16T16:00:51.194Z,100478.13
2018-03-16T16:03:18.791Z,100479.41
2018-03-16T16:05:46.377Z,100482.66
2018-03-16T16:08:13.991Z,100483.84
2018-03-16T16:10:41.571Z,100491.07
2018-03-16T16:13:09.151Z,100493.16
2018-03-16T16:15:36.743Z,100498.28
2018-03-16T16:18:04.335Z,100504.02
2018-03-16T16:20:31.923Z,100506.91
2018-03-16T16:22:59.526Z,100511.19
2018-03-16T16:25:27.116Z,100520.98
2018-03-16T16:27:54.760Z,100517.46
2018-03-16T16:30:22.347Z,100526.30
2018-03-16T16:32:49.938Z,100520.05
2018-03-16T16:35:17.559Z,100535.72
2018-03-16T16:37:45.855Z,100534.81
2018-03-16T16:40:13.479Z,100539.20
2018-03-16T16:42:41.833Z,100542.77
2018-03-16T16:45:09.420Z,100543.55
2018-03-16T16:47:37.853Z,100554.30
2018-03-16T16:50:05.442Z,100559.57
2018-03-16T16:52:33.072Z,100563.00
2018-03-16T16:55:00.744Z,100562.28
2018-03-16T16:57:28.332Z,100567.66
2018-03-16T16:59:55.918Z,100574.10
2018-03-16T17:02:23.525Z,100583.62
2018-03-16T17:04:51.111Z,100583.66
2018-03-16T17:07:18.700Z,100587.33
2018-03-16T17:09:46.296Z,100587.82
2018-03-16T17:12:13.890Z,100591.19
2018-03-16T17:14:42.376Z,100592.68
2018-03-16T17:17:10.015Z,100600.47
2018-03-16T17:19:38.527Z,100606.94
2018-03-16T17:22:06.123Z,100606.50
2018-03-16T17:24:33.724Z,100617.52
2018-03-16T17:27:01.318Z,100620.23
2018-03-16T17:29:28.915Z,100623.00
2018-03-16T17:31:56.512Z,100630.48
2018-03-16T17:34:24.109Z,100633.05
2018-03-16T17:36:51.703Z,100634.34
2018-03-16T17:39:19.295Z,100646.78
2018-03-16T17:41:46.979Z,100643.13
2018-03-16T17:44:14.570Z,100638.20
2018-03-16T17:46:42.218Z,100641.24
2018-03-16T17:49:09.840Z,100652.88
2018-03-16T17:51:37.426Z,100645.55
2018-03-16T17:54:05.015Z,100652.44
2018-03-16T17:56:32.643Z,100649.09
2018-03-16T17:59:00.232Z,100655.83
2018-03-16T18:01:28.551Z,100660.95
2018-03-16T18:03:56.148Z,100666.58
2018-03-16T18:06:23.735Z,100664.00
2018-03-16T18:08:51.360Z,100664.42
2018-03-16T18:11:18.943Z,100668.74
2018-03-16T18:13:46.584Z,100675.04
2018-03-16T18:16:14.167Z,100676.33
2018-03-16T18:18:41.756Z,100678.53
2018-03-16T18:21:09.343Z,100689.55
2018-03-16T18:23:36.928Z,100678.44
2018-03-16T18:26:04.548Z,100683.33
2018-03-16T18:28:32.143Z,100693.52
2018-03-16T18:30:59.732Z,100694.92
2018-03-16T18:33:27.332Z,100696.87
2018-03-16T18:35:54.915Z,100702.45
2018-03-16T18:38:22.495Z,100696.33
2018-03-16T18:40:51.024Z,100710.44
2018-03-16T18:43:19.379Z,100704.01
2018-03-16T18:45:47.854Z,100702.06
2018-03-16T18:48:15.481Z,100702.55
2018-03-16T18:50:43.104Z,100708.67
2018-03-16T18:53:10.746Z,100702.80
2018-03-16T18:55:39.241Z,100714.66
2018-03-16T19:00:41.723Z,100701.82
2018-03-16T19:03:09.311Z,100704.87
2018-03-16T19:05:37.768Z,100704.23
2018-03-16T19:08:06.224Z,100711.30
2018-03-16T19:10:33.811Z,100712.21
2018-03-16T19:13:01.426Z,100707.31
2018-03-16T19:15:29.017Z,100716.31
2018-03-16T19:17:56.599Z,100722.73
2018-03-16T19:20:24.227Z,100721.68
2018-03-16T19:22:51.815Z,100729.94
2018-03-16T19:25:19.410Z,100725.64
2018-03-16T19:27:47.003Z,100724.67
2018-03-16T19:30:15.333Z,100722.52
2018-03-16T19:32:42.963Z,100724.44
2018-03-16T19:35:10.550Z,100724.31
2018-03-16T19:37:38.202Z,100729.43
2018-03-16T19:40:05.793Z,100726.39
2018-03-16T19:42:33.376Z,100731.03
2018-03-16T19:45:01.744Z,100736.98
2018-03-16T19:47:30.152Z,100740.33
2018-03-16T19:49:58.434Z,100741.18
2018-03-16T19:52:27.721Z,100742.55
2018-03-16T19:54:56.517Z,100743.89
2018-03-16T19:57:24.707Z,100739.92
2018-03-16T19:59:52.424Z,100740.40
2018-03-16T20:02:20.996Z,100746.39
2018-03-16T20:04:48.596Z,100742.42
2018-03-16T20:07:17.092Z,100742.42
2018-03-16T20:09:48.192Z,100753.67
2018-03-16T20:12:15.784Z,100766.13
2018-03-16T20:14:43.405Z,100766.56
2018-03-16T20:17:11.107Z,100763.16
2018-03-16T20:19:39.711Z,100767.92
2018-03-16T20:22:07.301Z,100767.80
2018-03-16T20:24:34.888Z,100763.58
2018-03-16T20:27:02.499Z,100768.95
2018-03-16T20:29:30.108Z,100767.30
2018-03-16T20:31:57.700Z,100761.86
2018-03-16T20:34:26.099Z,100775.13
2018-03-16T20:36:54.637Z,100776.23
2018-03-16T20:39:23.680Z,100772.92
2018-03-16T20:41:51.260Z,100777.70
2018-03-16T20:44:18.847Z,100770.19
2018-03-16T20:46:46.448Z,100774.59
2018-03-16T20:49:14.024Z,100772.20
2018-03-16T20:51:42.398Z,100777.27
2018-03-16T20:56:43.713Z,100765.51
2018-03-16T20:59:11.332Z,100774.14
2018-03-16T21:01:38.916Z,100787.72
2018-03-16T21:04:06.504Z,100788.59
2018-03-16T21:06:35.124Z,100791.53
2018-03-16T21:09:02.707Z,100788.73
2018-03-16T21:11:30.290Z,100788.23
2018-03-16T21:13:57.875Z,100785.78
2018-03-16T21:16:25.469Z,100779.80
2018-03-16T21:18:53.056Z,100793.08
2018-03-16T21:21:20.643Z,100805.31
2018-03-16T21:23:48.223Z,100806.13
2018-03-16T21:26:15.820Z,100809.42
2018-03-16T21:28:43.443Z,100812.42
2018-03-16T21:31:11.098Z,100810.49
2018-03-16T21:33:38.651Z,100808.32
2018-03-16T21:36:06.244Z,100816.92
2018-03-16T21:38:33.832Z,100805.36
2018-03-16T21:41:01.410Z,100809.16
2018-03-16T21:43:28.996Z,100825.14
2018-03-16T21:45:56.579Z,100818.25
2018-03-16T21:48:24.155Z,100825.25
2018-03-16T21:50:51.750Z,100831.67
2018-03-16T21:53:19.468Z,100830.40
2018-03-16T21:55:47.056Z,100835.20
2018-03-16T21:58:14.637Z,100829.00
2018-03-16T22:00:42.256Z,100835.25
2018-03-16T22:03:09.842Z,100835.20
2018-03-16T22:05:37.424Z,100842.16
2018-03-16T22:08:05.828Z,100844.39
2018-03-16T22:10:33.418Z,100840.17
2018-03-16T22:13:01.009Z,100845.62
2018-03-16T22:15:28.587Z,100842.51
2018-03-16T22:17:57.078Z,100843.63
2018-03-16T22:20:25.453Z,100843.48
2018-03-16T22:22:53.821Z,100830.28
2018-03-16T22:25:21.403Z,100836.63
2018-03-16T22:27:48.985Z,100834.50
2018-03-16T22:30:17.467Z,100827.71
2018-03-16T22:32:45.054Z,100841.55
2018-03-16T22:35:12.640Z,100840.80
2018-03-16T22:37:40.220Z,100845.14
2018-03-16T22:40:08.590Z,100852.22
2018-03-16T22:42:36.172Z,100861.95
2018-03-16T22:45:03.791Z,100850.36
2018-03-16T22:47:31.371Z,100866.19
2018-03-16T22:49:58.949Z,100861.90
2018-03-16T22:52:27.538Z,100864.84
2018-03-16T22:54:56.026Z,100878.11
2018-03-16T22:57:23.629Z,100870.87
2018-03-16T22:59:57.392Z,100866.08
2018-03-16T23:02:25.025Z,100868.89
2018-03-16T23:04:53.879Z,100878.09
2018-03-16T23:07:21.515Z,100877.44
2018-03-16T23:09:49.091Z,100868.95
2018-03-16T23:12:16.939Z,100870.12
2018-03-16T23:14:45.554Z,100880.18
2018-03-16T23:17:13.135Z,100880.72
2018-03-16T23:19:40.722Z,100877.34
2018-03-16T23:22:08.346Z,100887.22
2018-03-16T23:24:35.930Z,100882.81
2018-03-16T23:27:03.517Z,100888.94
2018-03-16T23:29:31.102Z,100892.88
2018-03-16T23:31:58.711Z,100891.92
2018-03-16T23:34:26.329Z,100895.06
2018-03-16T23:36:53.932Z,100888.61
2018-03-16T23:39:21.514Z,100898.66
2018-03-16T23:41:49.099Z,100883.09
2018-03-16T23:44:16.676Z,100880.53
2018-03-16T23:46:45.050Z,100884.52
2018-03-16T23:49:12.627Z,100892.94
2018-03-16T23:51:40.213Z,100899.33
2018-03-16T23:54:07.792Z,100914.23
2018-03-16T23:56:35.396Z,100919.92
2018-03-16T23:59:02.982Z,100908.78
